createdAt,value
2019-01-24T00:00:34.583Z,35.95
2019-01-24T00:03:13.456Z,38.95
2019-01-24T00:06:04.257Z,40.60
2019-01-24T00:08:48.539Z,34.05
2019-01-24T00:11:24.055Z,38.02
2019-01-24T00:14:00.445Z,33.38
2019-01-24T00:16:33.832Z,36.30
2019-01-24T00:19:08.106Z,37.48
2019-01-24T00:21:42.831Z,36.98
2019-01-24T00:24:17.623Z,38.53
2019-01-24T00:26:56.468Z,39.42
2019-01-24T00:29:30.043Z,39.13
2019-01-24T00:32:06.748Z,38.80
2019-01-24T00:34:40.607Z,38.30
2019-01-24T00:37:14.870Z,39.65
2019-01-24T00:40:21.872Z,41.28
2019-01-24T00:43:06.918Z,38.08
2019-01-24T00:45:45.999Z,40.85
2019-01-24T00:48:29.313Z,38.33
2019-01-24T00:51:08.607Z,38.13
2019-01-24T00:54:09.253Z,38.10
2019-01-24T00:56:46.614Z,34.78
2019-01-24T01:02:29.670Z,39.55
2019-01-24T01:05:10.815Z,42.48
2019-01-24T01:07:52.204Z,39.42
2019-01-24T01:10:27.054Z,39.42
2019-01-24T01:13:08.671Z,37.35
2019-01-24T01:18:45.634Z,37.33
2019-01-24T01:21:21.932Z,39.30
2019-01-24T01:24:01.834Z,38.02
2019-01-24T01:26:40.588Z,38.78
2019-01-24T01:29:20.777Z,37.40
2019-01-24T01:32:03.443Z,38.30
2019-01-24T01:34:43.447Z,34.08
2019-01-24T01:37:18.250Z,37.85
2019-01-24T01:39:52.892Z,36.75
2019-01-24T01:42:27.702Z,42.08
2019-01-24T01:45:04.715Z,37.42
2019-01-24T01:47:39.735Z,37.33
2019-01-24T01:50:17.625Z,38.00
2019-01-24T01:52:50.698Z,39.35
2019-01-24T01:55:24.699Z,36.88
2019-01-24T01:57:59.464Z,36.93
2019-01-24T02:00:32.837Z,37.90
2019-01-24T02:03:06.211Z,36.10
2019-01-24T02:05:40.150Z,39.13
2019-01-24T02:08:13.123Z,36.05
2019-01-24T02:10:46.744Z,39.18
2019-01-24T02:13:20.456Z,37.83
2019-01-24T02:15:53.971Z,38.10
2019-01-24T02:18:27.603Z,37.03
2019-01-24T02:21:00.742Z,36.13
2019-01-24T02:23:37.141Z,40.60
2019-01-24T02:26:12.267Z,36.58
2019-01-24T02:28:45.327Z,38.25
2019-01-24T02:31:19.261Z,35.55
2019-01-24T02:33:52.953Z,35.98
2019-01-24T02:36:26.136Z,37.42
2019-01-24T02:38:59.139Z,35.38
2019-01-24T02:41:34.061Z,38.75
2019-01-24T02:44:07.261Z,36.40
2019-01-24T02:46:42.586Z,37.10
2019-01-24T02:49:15.683Z,37.78
2019-01-24T02:51:50.670Z,34.58
2019-01-24T02:54:23.698Z,38.60
2019-01-24T02:57:06.061Z,35.75
2019-01-24T02:59:43.677Z,36.83
2019-01-24T03:02:22.181Z,36.10
2019-01-24T03:04:57.212Z,35.80
2019-01-24T03:07:30.319Z,36.25
2019-01-24T03:10:06.462Z,37.00
2019-01-24T03:12:40.519Z,37.48
2019-01-24T03:15:16.187Z,36.93
2019-01-24T03:17:49.891Z,37.17
2019-01-24T03:20:28.724Z,36.05
2019-01-24T03:23:05.502Z,32.67
2019-01-24T03:25:40.907Z,38.38
2019-01-24T03:28:14.056Z,37.75
2019-01-24T03:30:47.097Z,33.60
2019-01-24T03:33:22.029Z,30.72
2019-01-24T03:35:55.184Z,35.15
2019-01-24T03:38:29.001Z,28.75
2019-01-24T03:41:01.955Z,36.05
2019-01-24T03:43:35.225Z,33.35
2019-01-24T13:06:26.266Z,31.42
2019-01-24T13:09:01.156Z,30.12
2019-01-24T13:11:37.042Z,29.60
2019-01-24T13:14:10.188Z,29.82
2019-01-24T13:16:43.914Z,29.32
2019-01-24T13:19:17.296Z,30.30
2019-01-24T13:21:50.993Z,29.90
2019-01-24T13:24:24.056Z,29.90
2019-01-24T13:26:59.477Z,28.25
2019-01-24T13:29:33.374Z,28.80
2019-01-24T13:32:06.463Z,31.48
2019-01-24T13:34:40.869Z,29.52
2019-01-24T13:37:15.794Z,30.25
2019-01-24T13:39:49.325Z,28.92
2019-01-24T13:42:22.498Z,31.45
2019-01-24T13:44:55.493Z,30.30
2019-01-24T13:47:29.190Z,32.10
2019-01-24T13:50:02.394Z,32.30
2019-01-24T13:52:35.478Z,31.40
2019-01-24T13:55:10.193Z,33.50
2019-01-24T13:57:43.540Z,32.08
2019-01-24T14:00:29.477Z,30.72
2019-01-24T14:03:32.770Z,28.45
2019-01-24T14:06:06.776Z,32.53
2019-01-24T14:08:42.459Z,31.68
2019-01-24T14:11:18.223Z,32.38
2019-01-24T14:13:50.761Z,30.68
2019-01-24T14:16:24.411Z,30.17
2019-01-24T14:18:57.581Z,34.30
2019-01-24T14:21:31.092Z,33.23
2019-01-24T14:24:04.891Z,31.15
2019-01-24T14:26:39.783Z,36.53
2019-01-24T14:29:13.239Z,29.60
2019-01-24T14:31:46.413Z,32.08
2019-01-24T14:34:19.984Z,32.40
2019-01-24T14:36:57.240Z,31.57
2019-01-24T14:39:31.478Z,30.70
2019-01-24T14:42:04.526Z,32.75
2019-01-24T14:44:38.321Z,36.53
2019-01-24T14:47:11.350Z,30.32
2019-01-24T14:49:44.421Z,33.25
2019-01-24T14:52:17.627Z,32.45
2019-01-24T14:54:51.051Z,31.50
2019-01-24T14:57:23.978Z,33.88
2019-01-24T14:59:57.599Z,30.45
2019-01-24T15:02:31.467Z,32.08
2019-01-24T15:05:05.093Z,31.40
2019-01-24T15:07:38.965Z,32.20
2019-01-24T15:10:13.213Z,31.52
2019-01-24T15:12:46.808Z,32.93
2019-01-24T15:15:21.739Z,32.23
2019-01-24T15:17:54.449Z,32.98
2019-01-24T15:20:27.931Z,32.30
2019-01-24T15:23:01.859Z,30.40
2019-01-24T15:25:35.013Z,32.40
2019-01-24T15:28:08.313Z,33.28
2019-01-24T15:30:41.412Z,34.15
2019-01-24T15:33:14.583Z,32.10
2019-01-24T15:35:47.579Z,32.08
2019-01-24T15:38:21.415Z,32.58
2019-01-24T15:40:54.945Z,33.30
2019-01-24T15:43:28.111Z,31.68
2019-01-24T15:46:01.902Z,33.50
2019-01-24T15:48:42.832Z,33.08
2019-01-24T15:51:13.049Z,33.58
2019-01-24T15:53:45.770Z,34.55
2019-01-24T15:56:20.136Z,36.28
2019-01-24T15:58:53.922Z,35.55
2019-01-24T16:01:26.568Z,34.03
2019-01-24T16:03:59.840Z,37.53
2019-01-24T16:06:33.282Z,36.10
2019-01-24T16:09:07.954Z,34.78
2019-01-24T16:11:41.101Z,31.33
2019-01-24T16:14:15.004Z,32.93
2019-01-24T16:16:48.203Z,34.43
2019-01-24T16:19:21.352Z,34.08
2019-01-24T16:21:54.899Z,35.33
2019-01-24T16:24:28.604Z,35.20
2019-01-24T16:27:02.068Z,36.15
2019-01-24T16:29:35.995Z,37.30
2019-01-24T16:32:09.074Z,35.88
2019-01-24T16:34:43.506Z,35.55
2019-01-24T16:37:16.660Z,36.10
2019-01-24T16:39:50.994Z,35.38
2019-01-24T16:42:24.097Z,38.42
2019-01-24T16:45:01.784Z,40.05
2019-01-24T16:47:34.501Z,37.23
2019-01-24T16:50:08.903Z,37.25
2019-01-24T16:52:42.810Z,37.45
2019-01-24T16:55:16.200Z,37.90
2019-01-24T16:57:50.342Z,37.98
2019-01-24T17:00:41.115Z,36.17
2019-01-24T17:03:14.261Z,35.48
2019-01-24T17:05:48.147Z,35.95
2019-01-24T17:08:22.024Z,35.78
2019-01-24T17:10:55.219Z,33.78
2019-01-24T17:13:29.129Z,34.88
2019-01-24T17:16:02.003Z,35.43
2019-01-24T17:18:35.911Z,37.48
2019-01-24T17:21:09.044Z,38.38
2019-01-24T17:23:41.822Z,38.80
2019-01-24T17:26:15.478Z,34.73
2019-01-24T17:28:48.138Z,37.35
2019-01-24T17:31:21.924Z,34.63
2019-01-24T17:33:55.989Z,37.15
2019-01-24T17:36:29.086Z,34.45
2019-01-24T17:39:02.484Z,34.08
2019-01-24T17:41:37.600Z,34.38
2019-01-24T17:44:10.738Z,36.03
2019-01-24T17:46:44.819Z,34.73
2019-01-24T17:49:18.243Z,35.52
2019-01-24T17:51:51.316Z,33.90
2019-01-24T17:54:24.314Z,38.70
2019-01-24T17:56:57.507Z,33.85
2019-01-24T17:59:31.113Z,38.42
2019-01-24T18:02:04.462Z,36.08
2019-01-24T18:04:40.361Z,37.58
2019-01-24T18:07:14.278Z,38.42
2019-01-24T18:09:47.959Z,36.73
2019-01-24T18:12:20.757Z,39.55
2019-01-24T18:14:54.322Z,37.30
2019-01-24T18:17:27.940Z,37.60
2019-01-24T18:20:01.445Z,40.23
2019-01-24T18:22:34.684Z,39.20
2019-01-24T18:25:07.974Z,35.90
2019-01-24T18:27:40.700Z,34.50
2019-01-24T18:30:19.742Z,36.75
2019-01-24T18:32:53.185Z,36.35
2019-01-24T18:35:27.562Z,33.85
2019-01-24T18:38:00.145Z,38.83
2019-01-24T18:40:33.807Z,39.48
2019-01-24T18:43:19.472Z,44.25
2019-01-24T18:45:54.005Z,38.75
2019-01-24T18:48:27.280Z,36.35
2019-01-24T18:51:00.768Z,35.35
2019-01-24T18:53:36.956Z,39.03
2019-01-24T18:56:10.195Z,36.20
2019-01-24T18:58:47.045Z,38.35
2019-01-24T19:01:21.827Z,37.55
2019-01-24T19:03:55.048Z,34.90
2019-01-24T19:06:28.614Z,37.35
2019-01-24T19:09:01.509Z,36.75
2019-01-24T19:11:36.422Z,36.68
2019-01-24T19:14:09.548Z,37.85
2019-01-24T19:16:42.616Z,36.00
2019-01-24T19:19:16.109Z,38.00
2019-01-24T19:21:50.838Z,35.75
2019-01-24T19:24:24.210Z,40.15
2019-01-24T19:26:57.441Z,37.53
2019-01-24T19:29:31.031Z,38.17
2019-01-24T19:32:04.435Z,34.95
2019-01-24T19:34:37.370Z,38.25
2019-01-24T19:37:11.451Z,40.05
2019-01-24T19:39:45.335Z,39.60
2019-01-24T19:42:18.420Z,37.42
2019-01-24T19:44:52.089Z,42.20
2019-01-24T19:47:27.752Z,38.98
2019-01-24T19:50:02.383Z,36.28
2019-01-24T19:52:38.030Z,38.20
2019-01-24T19:55:11.607Z,37.00
2019-01-24T19:57:45.447Z,35.65
2019-01-24T20:00:23.769Z,39.40
2019-01-24T20:02:57.364Z,39.80
2019-01-24T20:05:30.454Z,37.65
2019-01-24T20:08:05.253Z,36.25
2019-01-24T20:10:41.123Z,37.40
2019-01-24T20:13:14.451Z,34.67
2019-01-24T20:15:48.056Z,39.20
2019-01-24T20:18:21.944Z,36.63
2019-01-24T20:20:54.183Z,40.03
2019-01-24T20:23:27.765Z,38.30
2019-01-24T20:26:01.353Z,36.40
2019-01-24T20:28:35.296Z,37.88
2019-01-24T20:31:09.424Z,39.15
2019-01-24T20:33:42.200Z,40.08
2019-01-24T20:36:16.567Z,41.83
2019-01-24T20:38:49.333Z,36.60
2019-01-24T20:41:22.955Z,38.33
2019-01-24T20:44:03.797Z,38.48
2019-01-24T20:46:37.441Z,35.68
2019-01-24T20:49:10.606Z,39.42
2019-01-24T20:51:44.737Z,35.98
2019-01-24T20:54:18.484Z,38.13
2019-01-24T20:56:51.878Z,40.55
2019-01-24T20:59:25.482Z,39.70
2019-01-24T21:01:59.024Z,38.63
2019-01-24T21:04:32.474Z,35.78
2019-01-24T21:07:06.008Z,38.20
2019-01-24T21:09:39.440Z,40.25
2019-01-24T21:12:13.304Z,38.28
2019-01-24T21:14:46.827Z,36.50
2019-01-24T21:17:20.139Z,41.40
2019-01-24T21:19:53.597Z,37.60
2019-01-24T21:22:26.346Z,40.63
2019-01-24T21:24:59.367Z,36.90
2019-01-24T21:27:33.320Z,35.83
2019-01-24T21:30:09.981Z,36.45
2019-01-24T21:32:43.563Z,36.48
2019-01-24T21:35:17.060Z,38.48
2019-01-24T21:37:50.122Z,35.55
2019-01-24T21:40:23.972Z,35.25
2019-01-24T21:42:58.906Z,37.73
2019-01-24T21:45:32.834Z,34.88
2019-01-24T21:48:07.453Z,36.58
2019-01-24T21:50:40.532Z,32.83
2019-01-24T21:53:14.079Z,34.83
2019-01-24T21:55:49.185Z,33.73
2019-01-24T21:58:22.747Z,32.25
2019-01-24T22:00:55.773Z,36.45
2019-01-24T22:03:28.452Z,31.87
2019-01-24T22:06:01.920Z,31.62
2019-01-24T22:08:35.432Z,32.45
2019-01-24T22:11:08.390Z,31.07
2019-01-24T22:13:42.320Z,31.05
2019-01-24T22:16:15.485Z,30.12
2019-01-24T22:18:48.620Z,31.80
2019-01-24T22:21:22.554Z,32.08
2019-01-24T22:23:55.816Z,31.40
2019-01-24T22:26:29.070Z,30.88
2019-01-24T22:29:02.082Z,30.68
2019-01-24T22:31:34.981Z,31.05
2019-01-24T22:34:08.377Z,31.27
2019-01-24T22:36:41.871Z,29.98
2019-01-24T22:39:14.458Z,30.50
2019-01-24T22:41:48.075Z,31.00
2019-01-24T22:44:21.646Z,30.80
2019-01-24T22:46:57.132Z,30.25
2019-01-24T22:49:31.140Z,32.28
2019-01-24T22:52:04.722Z,28.15
2019-01-24T22:54:38.562Z,32.63
2019-01-24T22:57:11.943Z,30.77
2019-01-24T22:59:50.195Z,31.02
2019-01-24T23:02:25.836Z,32.50
2019-01-24T23:04:59.396Z,30.45
2019-01-24T23:07:35.130Z,29.92
2019-01-24T23:10:08.530Z,31.82
2019-01-24T23:12:42.022Z,32.93
2019-01-24T23:15:15.134Z,31.00
2019-01-24T23:17:48.504Z,30.00
2019-01-24T23:20:21.644Z,31.45
2019-01-24T23:22:54.998Z,33.20
2019-01-24T23:25:28.116Z,32.13
2019-01-24T23:28:01.171Z,31.40
2019-01-24T23:30:34.755Z,31.70
2019-01-24T23:33:07.871Z,29.60
2019-01-24T23:35:40.460Z,31.48
2019-01-24T23:38:14.236Z,32.10
2019-01-24T23:40:48.059Z,34.50
2019-01-24T23:43:20.657Z,27.95
2019-01-24T23:45:54.036Z,29.98
2019-01-24T23:48:27.007Z,30.82
2019-01-24T23:51:00.423Z,31.45
2019-01-24T23:53:34.252Z,32.55
2019-01-24T23:56:06.965Z,29.35
2019-01-24T23:58:40.129Z,31.52
